createdAt,value
2019-04-10T00:01:13.583Z,2.97
2019-04-10T00:03:43.985Z,2.80
2019-04-10T00:06:16.659Z,3.00
2019-04-10T00:08:44.713Z,2.65
2019-04-10T00:11:14.199Z,2.87
2019-04-10T00:13:44.912Z,2.73
2019-04-10T00:16:14.606Z,2.77
2019-04-10T00:18:44.305Z,2.80
2019-04-10T00:21:14.170Z,2.90
2019-04-10T00:23:43.974Z,2.67
2019-04-10T00:26:13.669Z,2.57
2019-04-10T00:28:43.579Z,3.17
2019-04-10T00:31:13.788Z,2.70
2019-04-10T00:33:43.357Z,2.40
2019-04-10T00:36:12.778Z,2.43
2019-04-10T00:38:42.390Z,2.75
2019-04-10T00:41:12.871Z,2.60
2019-04-10T00:43:43.364Z,2.60
2019-04-10T00:46:13.676Z,3.37
2019-04-10T00:48:43.924Z,2.97
2019-04-10T00:51:13.474Z,2.43
2019-04-10T00:53:43.491Z,2.67
2019-04-10T00:56:12.969Z,2.60
2019-04-10T00:58:42.344Z,2.50
2019-04-10T01:01:11.917Z,2.72
2019-04-10T01:03:46.661Z,2.50
2019-04-10T01:06:15.925Z,2.50
2019-04-10T01:08:45.757Z,2.70
2019-04-10T01:11:15.281Z,2.37
2019-04-10T01:13:45.389Z,2.90
2019-04-10T01:16:16.274Z,2.60
2019-04-10T01:18:45.957Z,2.60
2019-04-10T01:21:15.361Z,2.63
2019-04-10T01:23:45.385Z,2.45
2019-04-10T01:26:14.989Z,2.67
2019-04-10T01:28:45.138Z,2.70
2019-04-10T01:31:15.275Z,2.47
2019-04-10T01:33:45.866Z,2.52
2019-04-10T01:36:15.656Z,2.50
2019-04-10T01:38:46.195Z,2.40
2019-04-10T01:41:15.670Z,2.40
2019-04-10T01:43:45.091Z,2.60
2019-04-10T01:46:14.543Z,2.50
2019-04-10T01:48:44.095Z,2.53
2019-04-10T01:51:13.509Z,2.30
2019-04-10T01:53:44.077Z,2.20
2019-04-10T01:56:22.857Z,2.47
2019-04-10T01:58:47.589Z,2.60
2019-04-10T02:01:30.677Z,2.80
2019-04-10T02:04:00.583Z,2.60
2019-04-10T02:06:30.122Z,2.65
2019-04-10T02:09:00.424Z,2.70
2019-04-10T02:11:30.923Z,2.53
2019-04-10T02:14:00.384Z,2.40
2019-04-10T02:16:30.556Z,2.70
2019-04-10T02:18:59.968Z,2.57
2019-04-10T02:21:29.359Z,2.77
2019-04-10T02:23:58.979Z,2.43
2019-04-10T02:26:28.364Z,2.43
2019-04-10T02:28:57.761Z,2.83
2019-04-10T02:31:28.621Z,2.47
2019-04-10T02:33:59.929Z,2.83
2019-04-10T02:36:31.607Z,2.70
2019-04-10T02:39:15.221Z,2.98
2019-04-10T02:41:34.566Z,2.90
2019-04-10T02:44:04.885Z,2.40
2019-04-10T02:46:34.523Z,2.57
2019-04-10T02:49:04.320Z,2.52
2019-04-10T02:51:35.841Z,2.60
2019-04-10T02:54:05.708Z,2.80
2019-04-10T02:56:36.537Z,2.80
2019-04-10T02:59:07.387Z,3.15
2019-04-10T03:01:38.063Z,3.00
2019-04-10T03:04:09.154Z,2.67
2019-04-10T03:06:39.634Z,2.67
2019-04-10T03:09:26.047Z,2.98
2019-04-10T03:11:41.988Z,3.00
2019-04-10T03:14:12.524Z,2.87
2019-04-10T03:16:43.850Z,3.20
2019-04-10T03:19:13.641Z,2.80
2019-04-10T03:21:43.101Z,2.33
2019-04-10T03:24:12.542Z,2.85
2019-04-10T03:26:41.914Z,2.77
2019-04-10T03:29:11.621Z,2.77
2019-04-10T03:31:41.728Z,3.60
2019-04-10T03:34:26.126Z,4.03
2019-04-10T03:36:56.071Z,2.83
2019-04-10T03:39:25.854Z,2.80
2019-04-10T03:41:55.328Z,2.43
2019-04-10T03:44:25.402Z,2.52
2019-04-10T03:46:55.343Z,2.77
2019-04-10T03:49:25.543Z,2.98
2019-04-10T03:51:55.205Z,2.90
2019-04-10T03:54:25.178Z,3.05
2019-04-10T03:56:56.167Z,2.90
2019-04-10T03:59:26.367Z,3.10
2019-04-10T04:01:55.790Z,3.10
2019-04-10T04:04:25.792Z,3.00
2019-04-10T04:06:55.765Z,3.20
2019-04-10T04:09:25.187Z,2.80
2019-04-10T04:11:55.838Z,3.00
2019-04-10T04:14:25.648Z,3.50
2019-04-10T04:16:55.608Z,3.08
2019-04-10T04:19:26.142Z,3.17
2019-04-10T04:21:56.444Z,2.90
2019-04-10T04:24:26.631Z,2.87
2019-04-10T04:26:57.232Z,3.20
2019-04-10T04:29:27.061Z,2.80
2019-04-10T04:31:56.904Z,3.03
2019-04-10T04:34:27.256Z,2.80
2019-04-10T04:36:56.820Z,3.47
2019-04-10T04:39:28.415Z,3.30
2019-04-10T04:41:57.342Z,3.50
2019-04-10T04:44:27.204Z,3.90
2019-04-10T04:46:57.047Z,3.77
2019-04-10T04:49:26.495Z,3.67
2019-04-10T04:51:55.955Z,3.37
2019-04-10T04:54:25.597Z,3.43
2019-04-10T04:56:56.151Z,3.10
2019-04-10T04:59:26.171Z,3.47
2019-04-10T05:01:55.715Z,3.07
2019-04-10T05:04:25.350Z,3.17
2019-04-10T05:06:55.826Z,3.17
2019-04-10T05:09:31.226Z,3.30
2019-04-10T05:11:56.538Z,3.30
2019-04-10T05:14:27.271Z,3.17
2019-04-10T05:16:57.509Z,3.50
2019-04-10T05:19:27.540Z,3.30
2019-04-10T05:21:57.445Z,3.10
2019-04-10T05:24:27.946Z,3.60
2019-04-10T05:26:57.404Z,3.30
2019-04-10T05:29:30.406Z,3.57
2019-04-10T05:31:58.747Z,4.00
2019-04-10T05:34:28.273Z,3.43
2019-04-10T05:36:58.757Z,3.10
2019-04-10T05:39:39.721Z,3.53
2019-04-10T05:42:01.957Z,3.20
2019-04-10T05:44:32.125Z,3.83
2019-04-10T05:47:01.948Z,3.20
2019-04-10T05:49:31.298Z,3.10
2019-04-10T05:52:00.749Z,3.52
2019-04-10T05:54:31.087Z,3.40
2019-04-10T05:57:01.141Z,3.47
2019-04-10T05:59:30.791Z,3.90
2019-04-10T06:02:01.072Z,3.57
2019-04-10T06:04:31.594Z,3.55
2019-04-10T06:07:01.102Z,3.37
2019-04-10T06:09:31.134Z,3.20
2019-04-10T06:12:00.735Z,3.87
2019-04-10T06:14:30.434Z,4.30
2019-04-10T06:17:02.791Z,3.58
2019-04-10T06:19:32.246Z,4.00
2019-04-10T06:22:03.126Z,3.93
2019-04-10T06:24:33.704Z,3.43
2019-04-10T06:27:03.803Z,3.70
2019-04-10T06:29:33.288Z,3.70
2019-04-10T06:32:03.279Z,3.60
2019-04-10T06:34:32.678Z,4.00
2019-04-10T06:37:02.052Z,3.67
2019-04-10T06:39:31.454Z,3.87
2019-04-10T06:42:02.388Z,3.50
2019-04-10T06:44:32.214Z,3.77
2019-04-10T06:47:02.184Z,4.10
2019-04-10T06:49:33.100Z,4.20
2019-04-10T06:52:02.685Z,3.90
2019-04-10T06:54:33.114Z,3.60
2019-04-10T06:57:02.930Z,3.50
2019-04-10T06:59:32.475Z,3.27
2019-04-10T07:02:13.989Z,3.85
2019-04-10T07:04:43.946Z,3.77
2019-04-10T07:07:09.397Z,3.60
2019-04-10T07:09:35.822Z,3.58
2019-04-10T07:12:06.205Z,3.67
2019-04-10T07:14:37.970Z,3.57
2019-04-10T07:17:08.574Z,3.47
2019-04-10T07:19:37.955Z,4.30
2019-04-10T07:22:11.919Z,3.70
2019-04-10T07:24:41.380Z,3.58
2019-04-10T07:27:09.843Z,3.72
2019-04-10T07:29:40.358Z,3.27
2019-04-10T07:32:11.708Z,3.50
2019-04-10T07:34:42.502Z,3.70
2019-04-10T07:37:17.265Z,3.50
2019-04-10T07:39:44.745Z,3.72
2019-04-10T07:42:25.959Z,3.33
2019-04-10T07:44:45.521Z,3.60
2019-04-10T07:47:15.424Z,3.33
2019-04-10T07:49:44.877Z,3.53
2019-04-10T07:52:14.709Z,3.73
2019-04-10T07:54:44.929Z,3.50
2019-04-10T07:57:14.656Z,3.50
2019-04-10T07:59:45.206Z,3.50
2019-04-10T08:02:14.730Z,3.90
2019-04-10T08:04:45.327Z,3.57
2019-04-10T08:07:24.958Z,3.33
2019-04-10T08:09:46.411Z,3.90
2019-04-10T08:12:16.028Z,3.60
2019-04-10T08:14:46.371Z,3.50
2019-04-10T08:17:16.355Z,3.57
2019-04-10T08:19:45.975Z,3.57
2019-04-10T08:22:15.362Z,4.10
2019-04-10T08:24:46.989Z,3.70
2019-04-10T08:27:17.134Z,3.53
2019-04-10T08:29:46.589Z,3.57
2019-04-10T08:32:18.189Z,3.40
2019-04-10T08:34:48.617Z,3.62
2019-04-10T08:37:19.319Z,3.43
2019-04-10T08:39:49.863Z,3.10
2019-04-10T08:42:20.034Z,3.40
2019-04-10T08:44:49.430Z,3.20
2019-04-10T08:47:19.388Z,3.50
2019-04-10T08:49:49.521Z,2.90
2019-04-10T08:52:19.929Z,3.50
2019-04-10T08:54:53.154Z,3.40
2019-04-10T08:57:22.720Z,3.43
2019-04-10T08:59:52.134Z,3.97
2019-04-10T09:02:22.136Z,3.43
2019-04-10T09:04:53.172Z,3.60
2019-04-10T09:07:26.302Z,3.53
2019-04-10T09:09:58.285Z,3.60
2019-04-10T09:12:29.488Z,3.35
2019-04-10T09:14:59.320Z,4.03
2019-04-10T09:17:28.802Z,3.90
2019-04-10T09:19:58.437Z,3.63
2019-04-10T09:22:28.865Z,3.83
2019-04-10T09:24:58.952Z,3.10
2019-04-10T09:27:28.970Z,3.03
2019-04-10T09:29:58.479Z,3.60
2019-04-10T09:32:28.658Z,3.20
2019-04-10T09:34:58.285Z,3.20
2019-04-10T09:37:28.233Z,3.13
2019-04-10T09:39:58.074Z,3.40
2019-04-10T09:42:27.796Z,3.20
2019-04-10T09:44:57.172Z,3.10
2019-04-10T09:47:26.973Z,3.30
2019-04-10T09:49:57.611Z,3.47
2019-04-10T09:52:27.866Z,2.90
2019-04-10T09:54:57.708Z,4.07
2019-04-10T09:57:27.213Z,3.13
2019-04-10T09:59:56.866Z,2.90
2019-04-10T10:02:27.362Z,2.90
2019-04-10T10:04:57.791Z,3.03
2019-04-10T10:07:28.351Z,2.80
2019-04-10T10:10:00.688Z,2.80
2019-04-10T10:12:29.419Z,3.03
2019-04-10T10:14:58.820Z,2.97
2019-04-10T10:17:28.606Z,3.03
2019-04-10T10:19:59.455Z,3.10
2019-04-10T10:22:29.346Z,3.23
2019-04-10T10:24:59.956Z,3.23
2019-04-10T10:27:30.159Z,2.90
2019-04-10T10:29:59.949Z,3.90
2019-04-10T10:32:30.545Z,3.10
2019-04-10T10:35:01.031Z,2.77
2019-04-10T10:37:30.567Z,2.75
2019-04-10T10:39:59.968Z,2.63
2019-04-10T10:42:31.739Z,2.60
2019-04-10T10:45:01.109Z,2.70
2019-04-10T10:47:30.708Z,3.00
2019-04-10T10:50:01.088Z,2.80
2019-04-10T10:52:31.351Z,2.67
2019-04-10T10:55:01.107Z,3.23
2019-04-10T10:57:31.205Z,2.70
2019-04-10T11:00:02.048Z,2.40
2019-04-10T11:02:31.713Z,2.67
2019-04-10T11:05:06.572Z,2.60
2019-04-10T11:07:35.130Z,2.77
2019-04-10T11:10:06.827Z,2.52
2019-04-10T11:12:36.547Z,2.67
2019-04-10T11:15:07.992Z,2.50
2019-04-10T11:17:38.466Z,2.98
2019-04-10T11:20:10.192Z,2.55
2019-04-10T11:22:40.088Z,2.45
2019-04-10T11:25:12.099Z,2.60
2019-04-10T11:27:42.468Z,3.00
2019-04-10T11:30:13.679Z,2.50
2019-04-10T11:32:44.434Z,2.50
2019-04-10T11:35:15.555Z,2.50
2019-04-10T11:37:51.340Z,2.40
2019-04-10T11:40:20.895Z,2.60
2019-04-10T11:42:51.500Z,2.73
2019-04-10T11:45:22.997Z,2.50
2019-04-10T11:47:53.078Z,2.80
2019-04-10T11:50:25.292Z,2.70
2019-04-10T11:52:55.994Z,2.50
2019-04-10T11:55:27.081Z,2.70
2019-04-10T11:57:59.317Z,3.60
2019-04-10T12:00:47.622Z,2.70
2019-04-10T12:05:44.672Z,2.43
2019-04-10T12:08:38.500Z,2.43
2019-04-10T12:13:18.047Z,2.57
2019-04-10T12:15:48.417Z,2.53
2019-04-10T12:18:18.354Z,2.50
2019-04-10T12:20:47.793Z,3.00
2019-04-10T12:23:17.287Z,2.83
2019-04-10T12:25:47.190Z,2.90
2019-04-10T12:28:17.907Z,2.60
2019-04-10T12:30:48.908Z,3.33
2019-04-10T12:33:19.131Z,2.80
2019-04-10T12:35:49.878Z,2.80
2019-04-10T12:38:19.408Z,2.70
2019-04-10T12:40:48.835Z,2.70
2019-04-10T12:43:19.642Z,2.40
2019-04-10T12:45:49.070Z,2.40
2019-04-10T12:48:18.745Z,2.77
2019-04-10T12:50:49.428Z,2.40
2019-04-10T12:53:19.166Z,2.67
2019-04-10T12:55:49.422Z,3.43
2019-04-10T12:58:19.345Z,3.07
2019-04-10T13:00:50.603Z,2.83
2019-04-10T13:03:20.000Z,2.93
2019-04-10T13:05:49.523Z,3.17
2019-04-10T13:08:23.691Z,2.70
2019-04-10T13:10:50.318Z,2.70
2019-04-10T13:13:20.072Z,2.53
2019-04-10T13:15:49.854Z,2.50
2019-04-10T13:18:20.458Z,3.23
2019-04-10T13:20:50.333Z,3.03
2019-04-10T13:23:20.465Z,2.90
2019-04-10T13:25:59.138Z,2.80
2019-04-10T13:28:21.341Z,4.10
2019-04-10T13:30:53.755Z,3.30
2019-04-10T13:33:22.622Z,2.87
2019-04-10T13:35:53.332Z,2.80
2019-04-10T13:38:28.991Z,2.80
2019-04-10T13:40:54.320Z,2.97
2019-04-10T13:43:23.761Z,2.50
2019-04-10T13:45:54.246Z,2.70
2019-04-10T13:48:23.623Z,2.70
2019-04-10T13:50:53.353Z,2.80
2019-04-10T13:53:23.782Z,2.97
2019-04-10T13:55:53.351Z,2.70
2019-04-10T13:58:24.245Z,2.70
2019-04-10T14:00:55.278Z,2.63
2019-04-10T14:03:24.702Z,2.83
2019-04-10T14:05:54.851Z,2.67
2019-04-10T14:08:40.536Z,2.93
2019-04-10T14:10:57.220Z,3.07
2019-04-10T14:13:27.610Z,2.87
2019-04-10T14:15:58.079Z,3.03
2019-04-10T14:18:27.567Z,3.00
2019-04-10T14:20:57.538Z,2.70
2019-04-10T14:23:28.795Z,3.63
2019-04-10T14:26:42.023Z,3.50
2019-04-10T14:29:07.232Z,2.93
2019-04-10T14:31:40.583Z,2.55
2019-04-10T14:34:10.434Z,2.67
2019-04-10T14:36:40.215Z,2.93
2019-04-10T14:39:18.409Z,3.05
2019-04-10T14:41:46.506Z,2.73
2019-04-10T14:44:15.827Z,2.97
2019-04-10T14:46:46.435Z,2.95
2019-04-10T14:49:16.768Z,3.20
2019-04-10T14:51:48.540Z,2.90
2019-04-10T14:54:18.180Z,3.07
2019-04-10T14:56:48.435Z,2.67
2019-04-10T14:59:17.903Z,2.80
2019-04-10T15:01:48.359Z,2.83
2019-04-10T15:04:17.816Z,2.93
2019-04-10T15:06:47.991Z,2.63
2019-04-10T15:09:25.378Z,2.90
2019-04-10T15:11:51.442Z,2.87
2019-04-10T15:14:21.643Z,2.93
2019-04-10T15:16:56.461Z,2.80
2019-04-10T15:19:22.734Z,3.03
2019-04-10T15:21:53.719Z,3.30
2019-04-10T15:24:23.797Z,3.30
2019-04-10T15:26:54.372Z,3.20
2019-04-10T15:29:24.871Z,3.40
2019-04-10T15:31:54.277Z,4.20
2019-04-10T15:34:23.716Z,4.03
2019-04-10T15:36:53.156Z,3.77
2019-04-10T15:39:33.182Z,3.30
2019-04-10T15:41:54.034Z,3.23
2019-04-10T15:44:24.458Z,3.10
2019-04-10T15:46:53.876Z,3.10
2019-04-10T15:49:23.317Z,2.70
2019-04-10T15:51:53.155Z,2.90
2019-04-10T15:54:23.654Z,2.80
2019-04-10T15:57:16.494Z,3.17
2019-04-10T15:59:46.323Z,3.07
2019-04-10T16:02:15.842Z,2.67
2019-04-10T16:04:45.611Z,3.33
2019-04-10T16:07:16.099Z,3.00
2019-04-10T16:09:50.673Z,2.60
2019-04-10T16:12:20.677Z,2.80
2019-04-10T16:14:50.716Z,2.60
2019-04-10T16:17:37.761Z,2.60
2019-04-10T16:20:32.146Z,2.50
2019-04-10T16:23:31.386Z,2.50
2019-04-10T16:26:03.175Z,2.40
2019-04-10T16:28:33.556Z,1.95
2019-04-10T16:31:03.652Z,2.10
2019-04-10T16:33:33.550Z,2.07
2019-04-10T16:36:03.125Z,2.57
2019-04-10T16:38:33.000Z,2.10
2019-04-10T16:41:02.847Z,1.90
2019-04-10T16:43:32.754Z,2.07
2019-04-10T16:46:04.926Z,2.03
2019-04-10T16:48:35.963Z,2.17
2019-04-10T16:51:06.294Z,2.60
2019-04-10T16:53:36.397Z,2.50
2019-04-10T16:56:07.814Z,2.50
2019-04-10T16:58:38.213Z,2.22
2019-04-10T17:01:09.126Z,2.37
2019-04-10T17:03:38.504Z,2.67
2019-04-10T17:06:08.247Z,2.50
2019-04-10T17:08:38.924Z,2.42
2019-04-10T17:11:09.157Z,3.12
2019-04-10T17:13:38.684Z,2.53
2019-04-10T17:16:18.431Z,2.98
2019-04-10T17:18:47.831Z,2.80
2019-04-10T17:21:18.550Z,3.27
2019-04-10T17:23:49.181Z,5.73
2019-04-10T17:26:19.065Z,3.52
2019-04-10T17:28:48.514Z,3.37
2019-04-10T17:31:18.213Z,3.53
2019-04-10T17:33:47.980Z,3.77
2019-04-10T17:36:17.497Z,2.70
2019-04-10T17:38:47.017Z,3.07
2019-04-10T17:41:17.694Z,2.63
2019-04-10T17:43:47.505Z,3.27
2019-04-10T17:46:17.386Z,3.40
2019-04-10T17:48:46.825Z,5.13
2019-04-10T17:51:18.005Z,3.33
2019-04-10T17:53:49.523Z,3.07
2019-04-10T17:56:20.121Z,4.30
2019-04-10T17:58:50.482Z,4.60
2019-04-10T18:01:22.907Z,3.90
2019-04-10T18:03:57.160Z,3.97
2019-04-10T18:06:23.865Z,4.67
2019-04-10T18:08:53.615Z,4.90
2019-04-10T18:11:22.986Z,4.30
2019-04-10T18:13:53.069Z,3.70
2019-04-10T18:16:22.489Z,4.23
2019-04-10T18:18:52.371Z,5.30
2019-04-10T18:21:22.425Z,5.40
2019-04-10T18:23:52.127Z,5.30
2019-04-10T18:26:21.582Z,5.13
2019-04-10T18:28:52.020Z,4.27
2019-04-10T18:31:23.996Z,4.30
2019-04-10T18:33:53.106Z,4.23
2019-04-10T18:36:22.551Z,7.13
2019-04-10T18:38:52.686Z,4.37
2019-04-10T18:41:22.168Z,4.97
2019-04-10T18:43:51.572Z,4.63
2019-04-10T18:46:22.385Z,4.40
2019-04-10T18:48:52.146Z,4.27
2019-04-10T18:51:21.678Z,4.80
2019-04-10T18:53:51.234Z,4.33
2019-04-10T18:56:20.866Z,5.80
2019-04-10T18:59:05.869Z,4.90
2019-04-10T19:02:03.871Z,6.42
2019-04-10T19:04:41.219Z,5.30
2019-04-10T19:07:11.215Z,5.00
2019-04-10T19:09:42.771Z,5.22
2019-04-10T19:12:14.682Z,5.20
2019-04-10T19:14:44.749Z,4.73
2019-04-10T19:17:14.868Z,5.25
2019-04-10T19:19:45.447Z,5.10
2019-04-10T19:22:18.193Z,5.07
2019-04-10T19:24:50.493Z,5.40
2019-04-10T19:27:20.133Z,5.30
2019-04-10T19:29:50.786Z,5.27
2019-04-10T19:32:26.741Z,6.53
2019-04-10T19:34:59.599Z,5.30
2019-04-10T19:37:30.353Z,5.27
2019-04-10T19:40:02.997Z,5.00
2019-04-10T19:42:33.971Z,4.90
2019-04-10T19:45:05.703Z,4.97
2019-04-10T19:47:36.648Z,5.00
2019-04-10T19:50:06.486Z,5.70
2019-04-10T19:52:36.995Z,5.80
2019-04-10T19:55:08.269Z,5.73
2019-04-10T19:57:37.760Z,11.23
2019-04-10T20:00:17.714Z,7.85
2019-04-10T20:02:49.040Z,20.53
2019-04-10T20:05:25.542Z,11.07
2019-04-10T20:07:55.454Z,5.43
2019-04-10T20:10:35.116Z,5.50
2019-04-10T20:13:11.349Z,5.30
2019-04-10T20:15:42.712Z,5.47
2019-04-10T20:18:12.695Z,5.20
2019-04-10T20:20:42.185Z,5.37
2019-04-10T20:23:14.571Z,5.53
2019-04-10T20:25:48.735Z,5.60
2019-04-10T20:28:18.502Z,6.33
2019-04-10T20:30:54.913Z,6.30
2019-04-10T20:33:25.350Z,5.57
2019-04-10T20:35:55.006Z,5.60
2019-04-10T20:38:27.589Z,5.83
2019-04-10T20:40:58.216Z,5.57
2019-04-10T20:43:29.493Z,7.03
2019-04-10T20:46:00.218Z,5.63
2019-04-10T20:48:30.912Z,6.00
2019-04-10T20:51:00.647Z,5.80
2019-04-10T20:53:30.123Z,5.17
2019-04-10T20:55:59.945Z,5.47
2019-04-10T20:58:31.150Z,6.17
2019-04-10T21:01:00.666Z,5.73
2019-04-10T21:03:30.348Z,5.93
2019-04-10T21:06:00.460Z,5.40
2019-04-10T21:08:32.002Z,5.10
2019-04-10T21:11:03.403Z,5.60
2019-04-10T21:13:34.011Z,5.00
2019-04-10T21:16:04.457Z,4.97
2019-04-10T21:18:34.074Z,5.55
2019-04-10T21:21:03.456Z,5.17
2019-04-10T21:23:32.902Z,5.53
2019-04-10T21:26:04.250Z,4.67
2019-04-10T21:28:37.140Z,5.00
2019-04-10T21:31:39.173Z,5.25
2019-04-10T21:34:20.313Z,5.03
2019-04-10T21:36:49.739Z,5.03
2019-04-10T21:39:21.199Z,4.80
2019-04-10T21:41:50.915Z,5.20
2019-04-10T21:44:23.107Z,5.23
2019-04-10T21:46:55.095Z,5.10
2019-04-10T21:49:24.531Z,5.97
2019-04-10T21:51:53.976Z,5.70
2019-04-10T21:54:27.007Z,5.70
2019-04-10T21:56:59.699Z,5.40
2019-04-10T21:59:32.362Z,5.40
2019-04-10T22:02:02.780Z,4.80
2019-04-10T22:04:32.918Z,5.43
2019-04-10T22:07:23.847Z,5.83
2019-04-10T22:10:19.889Z,5.33
2019-04-10T22:12:52.165Z,5.27
2019-04-10T22:15:37.394Z,5.90
2019-04-10T22:18:09.377Z,5.10
2019-04-10T22:20:41.673Z,5.50
2019-04-10T22:23:11.687Z,5.40
2019-04-10T22:25:43.669Z,5.23
2019-04-10T22:28:14.831Z,5.75
2019-04-10T22:30:45.757Z,5.20
2019-04-10T22:33:16.054Z,5.33
2019-04-10T22:35:46.308Z,5.33
2019-04-10T22:38:17.561Z,4.93
2019-04-10T22:40:48.287Z,4.60
2019-04-10T22:43:20.208Z,5.53
2019-04-10T22:45:52.943Z,5.60
2019-04-10T22:48:23.027Z,4.90
2019-04-10T22:50:53.811Z,5.17
2019-04-10T22:53:25.553Z,5.00
2019-04-10T22:55:56.398Z,4.73
2019-04-10T22:58:27.146Z,4.80
2019-04-10T23:00:58.534Z,5.20
2019-04-10T23:03:30.163Z,5.00
2019-04-10T23:06:00.683Z,4.80
2019-04-10T23:08:31.560Z,4.90
2019-04-10T23:11:01.507Z,4.77
2019-04-10T23:13:32.281Z,4.87
2019-04-10T23:16:02.001Z,5.00
2019-04-10T23:18:31.820Z,4.87
2019-04-10T23:21:06.034Z,4.83
2019-04-10T23:23:35.582Z,5.30
2019-04-10T23:26:05.204Z,4.73
2019-04-10T23:28:35.722Z,4.65
2019-04-10T23:31:05.685Z,4.77
2019-04-10T23:33:36.639Z,4.70
2019-04-10T23:36:07.667Z,4.47
2019-04-10T23:38:38.227Z,4.60
2019-04-10T23:41:09.472Z,5.27
2019-04-10T23:43:42.423Z,4.50
2019-04-10T23:46:12.777Z,4.97
2019-04-10T23:48:42.556Z,4.80
2019-04-10T23:51:12.690Z,5.33
2019-04-10T23:53:42.200Z,4.72
2019-04-10T23:56:11.808Z,4.60
2019-04-10T23:58:42.475Z,4.80
